Time;durP1;ratioP1;P1;durP2;ratioP2;P2;SDS_P1;SDS_P2;PMS_P1;PMS_P2;Temp;Humidity;BMP_temperature;BMP_pressure;BME280_temperature;BME280_humidity;BME280_pressure;Samples;Min_cycle;Max_cycle;Signal;HPM_P1;HPM_P2
2023/06/19 00:00:40;;;;;;;;;;;23.70;50.40;;;;;;5073344;28;20377;-37
2023/06/19 00:03:05;;;;;;;;;;;23.70;50.40;;;;;;5073545;28;19931;-35
2023/06/19 00:05:31;;;;;;;;;;;23.60;50.40;;;;;;5073098;28;19923;-32
2023/06/19 00:07:56;;;;;;;;;;;23.60;50.60;;;;;;5073209;28;20303;-36
2023/06/19 00:10:22;;;;;;;;;;;23.60;50.60;;;;;;5073137;28;19962;-36
2023/06/19 00:12:47;;;;;;;;;;;23.60;50.70;;;;;;5073035;28;20390;-40
2023/06/19 00:15:13;;;;;;;;;;;23.60;50.70;;;;;;5073073;28;19938;-35
2023/06/19 00:17:38;;;;;;;;;;;23.60;50.70;;;;;;5073001;28;20015;-36
2023/06/19 00:20:05;;;;;;;;;;;23.60;50.80;;;;;;5072894;28;20356;-39
2023/06/19 00:22:31;;;;;;;;;;;23.60;50.80;;;;;;5072877;28;20394;-35
2023/06/19 00:24:56;;;;;;;;;;;23.60;50.80;;;;;;5072617;28;19920;-36
2023/06/19 00:27:22;;;;;;;;;;;23.60;51.00;;;;;;5072817;28;19913;-35
2023/06/19 00:29:47;;;;;;;;;;;23.60;51.10;;;;;;5072810;28;20409;-35
2023/06/19 00:32:13;;;;;;;;;;;23.60;51.10;;;;;;5072779;28;19916;-37
2023/06/19 00:34:38;;;;;;;;;;;23.60;51.20;;;;;;5072589;28;19913;-34
2023/06/19 00:37:04;;;;;;;;;;;23.60;51.40;;;;;;5072507;28;19912;-35
2023/06/19 00:39:29;;;;;;;;;;;23.60;51.60;;;;;;5054613;28;19920;-35
2023/06/19 00:41:55;;;;;;;;;;;23.60;51.70;;;;;;5072572;28;19919;-36
2023/06/19 00:44:22;;;;;;;;;;;23.60;51.80;;;;;;5072550;28;20367;-36
2023/06/19 00:46:51;;;;;;;;;;;23.60;52.10;;;;;;5072391;28;20380;-39
2023/06/19 00:49:16;;;;;;;;;;;23.60;52.00;;;;;;5054424;28;19908;-37
2023/06/19 00:51:42;;;;;;;;;;;23.60;52.30;;;;;;5072350;28;19916;-35
2023/06/19 00:54:07;;;;;;;;;;;23.60;52.50;;;;;;5054323;28;19908;-38
2023/06/19 00:56:34;;;;;;;;;;;23.60;52.70;;;;;;5072178;28;19915;-35
2023/06/19 00:59:00;;;;;;;;;;;23.60;52.80;;;;;;5072124;28;19915;-34
2023/06/19 01:01:26;;;;;;;;;;;23.60;53.00;;;;;;5071973;28;20427;-36
2023/06/19 01:03:51;;;;;;;;;;;23.60;53.00;;;;;;5071405;28;19959;-37
2023/06/19 01:06:22;;;;;;;;;;;23.60;53.30;;;;;;5072031;28;20318;-36
2023/06/19 01:08:53;;;;;;;;;;;23.60;53.30;;;;;;5072127;28;20331;-37
2023/06/19 01:11:21;;;;;;;;;;;23.60;53.50;;;;;;5072018;28;20284;-45
2023/06/19 01:13:53;;;;;;;;;;;23.60;53.80;;;;;;5071971;28;19908;-36
2023/06/19 01:16:21;;;;;;;;;;;23.60;53.70;;;;;;5072006;28;20341;-34
2023/06/19 01:18:46;;;;;;;;;;;23.50;53.70;;;;;;5071759;28;20197;-35
2023/06/19 01:21:13;;;;;;;;;;;23.50;53.90;;;;;;5053972;28;19951;-35
2023/06/19 01:23:39;;;;;;;;;;;23.60;54.10;;;;;;5071768;28;19923;-35
2023/06/19 01:26:06;;;;;;;;;;;23.50;54.00;;;;;;5071965;28;20325;-36
2023/06/19 01:28:32;;;;;;;;;;;23.50;54.20;;;;;;5071622;28;19908;-36
2023/06/19 01:31:00;;;;;;;;;;;23.50;54.30;;;;;;5071954;28;20283;-44
2023/06/19 01:33:27;;;;;;;;;;;23.50;54.30;;;;;;5071699;28;20008;-47
2023/06/19 01:35:53;;;;;;;;;;;23.50;54.50;;;;;;5071705;28;19913;-41
2023/06/19 01:38:25;;;;;;;;;;;23.50;54.70;;;;;;5071576;28;19916;-36
2023/06/19 01:40:51;;;;;;;;;;;23.40;54.70;;;;;;5071622;28;19909;-32
2023/06/19 01:43:17;;;;;;;;;;;23.40;54.90;;;;;;5071608;28;19962;-35
2023/06/19 01:45:43;;;;;;;;;;;23.30;54.90;;;;;;5071483;28;19965;-35
2023/06/19 01:48:08;;;;;;;;;;;23.30;55.00;;;;;;5071632;28;19912;-34
2023/06/19 01:50:34;;;;;;;;;;;23.20;55.00;;;;;;5071709;28;19958;-35
2023/06/19 01:53:00;;;;;;;;;;;23.20;55.10;;;;;;5071692;28;19958;-35
2023/06/19 01:55:25;;;;;;;;;;;23.20;55.30;;;;;;5053658;28;19912;-37
2023/06/19 01:57:51;;;;;;;;;;;23.10;55.60;;;;;;5071572;28;20276;-35
2023/06/19 02:00:17;;;;;;;;;;;23.10;55.70;;;;;;5071558;28;20421;-36
2023/06/19 02:02:42;;;;;;;;;;;23.00;55.80;;;;;;5071464;28;19916;-35
2023/06/19 02:05:08;;;;;;;;;;;22.90;55.80;;;;;;5071535;28;19912;-36
2023/06/19 02:07:33;;;;;;;;;;;22.90;56.00;;;;;;5071487;28;20054;-36
2023/06/19 02:09:59;;;;;;;;;;;22.90;56.80;;;;;;5071584;28;20010;-35
2023/06/19 02:12:24;;;;;;;;;;;22.80;56.30;;;;;;5071357;28;19916;-34
2023/06/19 02:14:50;;;;;;;;;;;22.80;56.50;;;;;;5074309;28;20361;-34
2023/06/19 02:17:15;;;;;;;;;;;22.70;56.70;;;;;;5075234;28;19915;-36
2023/06/19 02:19:41;;;;;;;;;;;22.70;56.90;;;;;;5075216;28;19945;-35
2023/06/19 02:22:06;;;;;;;;;;;22.70;57.00;;;;;;5075240;28;20403;-35
2023/06/19 02:24:32;;;;;;;;;;;22.60;57.10;;;;;;5075064;28;20054;-35
2023/06/19 02:26:58;;;;;;;;;;;22.50;57.80;;;;;;5075228;28;19931;-35
2023/06/19 02:29:24;;;;;;;;;;;22.50;57.20;;;;;;5075147;28;20003;-34
2023/06/19 02:31:49;;;;;;;;;;;22.50;57.50;;;;;;5075180;28;19997;-35
2023/06/19 02:34:15;;;;;;;;;;;22.50;58.20;;;;;;5075063;28;19915;-36
2023/06/19 02:36:41;;;;;;;;;;;22.40;58.90;;;;;;5075275;28;19909;-35
2023/06/19 02:39:06;;;;;;;;;;;22.30;59.10;;;;;;5074959;28;20003;-35
2023/06/19 02:41:32;;;;;;;;;;;22.20;60.00;;;;;;5075108;28;19909;-34
2023/06/19 02:43:57;;;;;;;;;;;22.20;59.30;;;;;;5074851;28;19952;-36
2023/06/19 02:46:23;;;;;;;;;;;22.10;59.30;;;;;;5074803;28;20371;-44
2023/06/19 02:48:48;;;;;;;;;;;22.10;59.70;;;;;;5056969;28;19916;-37
2023/06/19 02:51:14;;;;;;;;;;;22.00;59.70;;;;;;5075166;28;19908;-35
2023/06/19 02:53:41;;;;;;;;;;;22.00;60.00;;;;;;5074870;28;19909;-35
2023/06/19 02:56:07;;;;;;;;;;;22.00;60.00;;;;;;5056745;28;19909;-35
2023/06/19 02:58:34;;;;;;;;;;;21.90;60.10;;;;;;5074812;28;20310;-36
2023/06/19 03:00:59;;;;;;;;;;;21.90;60.10;;;;;;5074758;28;19908;-35
2023/06/19 03:03:25;;;;;;;;;;;21.80;60.30;;;;;;5075153;28;20007;-35
2023/06/19 03:05:50;;;;;;;;;;;21.80;60.30;;;;;;5074424;28;19913;-34
2023/06/19 03:08:16;;;;;;;;;;;21.80;60.30;;;;;;5074490;28;20287;-36
2023/06/19 03:10:41;;;;;;;;;;;21.80;60.40;;;;;;5074372;28;20008;-33
2023/06/19 03:13:07;;;;;;;;;;;21.80;60.50;;;;;;5074369;28;19909;-35
2023/06/19 03:15:32;;;;;;;;;;;21.80;61.30;;;;;;5074345;28;19916;-33
2023/06/19 03:17:58;;;;;;;;;;;21.80;61.10;;;;;;5074326;28;19908;-37
2023/06/19 03:20:23;;;;;;;;;;;21.80;61.30;;;;;;5074258;28;19948;-34
2023/06/19 03:22:49;;;;;;;;;;;21.80;61.30;;;;;;5074351;28;20244;-36
2023/06/19 03:25:15;;;;;;;;;;;21.80;61.20;;;;;;5072965;28;19928;-32
2023/06/19 03:27:40;;;;;;;;;;;21.80;61.20;;;;;;5074259;28;19931;-39
2023/06/19 03:30:06;;;;;;;;;;;21.80;61.10;;;;;;5074134;28;19914;-33
2023/06/19 03:32:35;;;;;;;;;;;21.80;61.10;;;;;;5074200;28;19908;-34
2023/06/19 03:35:01;;;;;;;;;;;21.80;61.20;;;;;;5074071;28;20311;-35
2023/06/19 03:37:27;;;;;;;;;;;21.70;61.30;;;;;;5074003;28;19920;-37
2023/06/19 03:39:52;;;;;;;;;;;21.70;61.80;;;;;;5073620;28;19912;-32
2023/06/19 03:42:18;;;;;;;;;;;21.70;61.90;;;;;;5073310;28;19908;-35
2023/06/19 03:44:43;;;;;;;;;;;21.70;61.80;;;;;;5073591;28;20253;-34
2023/06/19 03:47:09;;;;;;;;;;;21.70;61.90;;;;;;5073853;28;19923;-36
2023/06/19 03:49:34;;;;;;;;;;;21.70;62.00;;;;;;5073528;28;19909;-34
2023/06/19 03:51:59;;;;;;;;;;;21.80;62.10;;;;;;5073749;28;19981;-36
2023/06/19 03:54:26;;;;;;;;;;;21.80;62.90;;;;;;5073820;28;20990;-36
2023/06/19 03:56:51;;;;;;;;;;;21.80;62.30;;;;;;5073681;28;19909;-33
2023/06/19 03:59:17;;;;;;;;;;;21.80;62.10;;;;;;5073833;28;19923;-36
2023/06/19 04:01:43;;;;;;;;;;;21.90;62.00;;;;;;5073342;28;20329;-35
2023/06/19 04:04:08;;;;;;;;;;;21.80;62.20;;;;;;5073201;28;19908;-35
2023/06/19 04:06:34;;;;;;;;;;;21.90;62.40;;;;;;5055473;28;19951;-41
2023/06/19 04:08:59;;;;;;;;;;;21.90;62.40;;;;;;5073707;28;19940;-40
2023/06/19 04:11:25;;;;;;;;;;;21.90;62.20;;;;;;5055287;28;19909;-35
2023/06/19 04:13:50;;;;;;;;;;;21.90;62.50;;;;;;5073323;28;19908;-41
2023/06/19 04:16:15;;;;;;;;;;;21.90;62.40;;;;;;5073214;28;19908;-33
2023/06/19 04:18:41;;;;;;;;;;;21.90;62.70;;;;;;5073588;28;19923;-34
2023/06/19 04:21:07;;;;;;;;;;;21.90;62.80;;;;;;5073147;28;19912;-36
2023/06/19 04:23:32;;;;;;;;;;;21.90;63.10;;;;;;5072938;28;20399;-36
2023/06/19 04:25:58;;;;;;;;;;;21.90;63.10;;;;;;5072975;28;19956;-36
2023/06/19 04:28:23;;;;;;;;;;;21.90;63.30;;;;;;5072902;28;19931;-36
2023/06/19 04:30:49;;;;;;;;;;;21.90;63.40;;;;;;5072883;28;19908;-37
2023/06/19 04:33:14;;;;;;;;;;;21.90;63.40;;;;;;5072709;28;19909;-34
2023/06/19 04:35:40;;;;;;;;;;;21.90;63.80;;;;;;5072899;28;20271;-37
2023/06/19 04:38:06;;;;;;;;;;;21.90;63.90;;;;;;5072581;28;20000;-35
2023/06/19 04:40:32;;;;;;;;;;;21.80;63.70;;;;;;5072767;28;20310;-36
2023/06/19 04:42:59;;;;;;;;;;;21.80;63.80;;;;;;5073004;28;20014;-36
2023/06/19 04:45:24;;;;;;;;;;;21.80;64.80;;;;;;5072587;28;20014;-36
2023/06/19 04:47:49;;;;;;;;;;;21.80;64.70;;;;;;5072604;28;20432;-36
2023/06/19 04:50:16;;;;;;;;;;;21.80;65.20;;;;;;5072541;28;20303;-36
2023/06/19 04:52:41;;;;;;;;;;;21.80;65.10;;;;;;5072409;28;19936;-36
2023/06/19 04:55:10;;;;;;;;;;;21.80;65.20;;;;;;5054264;28;19943;-38
2023/06/19 04:57:36;;;;;;;;;;;21.80;65.10;;;;;;5072323;28;19915;-35
2023/06/19 05:00:09;;;;;;;;;;;21.80;66.00;;;;;;5072437;28;19909;-35
2023/06/19 05:02:35;;;;;;;;;;;21.80;65.30;;;;;;5072168;28;19909;-34
2023/06/19 05:05:03;;;;;;;;;;;21.80;65.90;;;;;;5072455;28;19919;-36
2023/06/19 05:07:31;;;;;;;;;;;21.80;65.90;;;;;;5072292;28;20332;-35
2023/06/19 05:09:57;;;;;;;;;;;21.80;66.50;;;;;;5072197;28;20415;-36
2023/06/19 05:12:22;;;;;;;;;;;21.70;67.00;;;;;;5072283;28;19919;-36
2023/06/19 05:14:48;;;;;;;;;;;21.70;67.20;;;;;;5072054;28;19957;-36
2023/06/19 05:17:14;;;;;;;;;;;21.60;67.10;;;;;;5072053;28;19909;-36
2023/06/19 05:19:39;;;;;;;;;;;21.60;67.20;;;;;;5054026;28;20017;-36
2023/06/19 05:22:05;;;;;;;;;;;21.60;68.40;;;;;;5071923;28;20290;-37
2023/06/19 05:24:30;;;;;;;;;;;21.60;68.00;;;;;;5072039;28;19927;-36
2023/06/19 05:26:56;;;;;;;;;;;21.60;67.90;;;;;;5071965;28;19912;-44
2023/06/19 05:29:21;;;;;;;;;;;21.60;67.90;;;;;;5071924;28;19962;-37
2023/06/19 05:31:47;;;;;;;;;;;21.60;68.40;;;;;;5072005;28;20298;-35
2023/06/19 05:34:13;;;;;;;;;;;21.60;68.50;;;;;;5071911;28;19912;-35
2023/06/19 05:36:38;;;;;;;;;;;21.50;68.30;;;;;;5071927;28;20011;-35
2023/06/19 05:39:04;;;;;;;;;;;21.60;68.40;;;;;;5071617;28;20390;-37
2023/06/19 05:41:30;;;;;;;;;;;21.60;68.80;;;;;;5071923;28;19966;-37
2023/06/19 05:43:56;;;;;;;;;;;21.60;68.40;;;;;;5071759;28;19909;-36
2023/06/19 05:46:21;;;;;;;;;;;21.70;68.30;;;;;;5071193;28;20231;-36
2023/06/19 05:48:47;;;;;;;;;;;21.70;68.40;;;;;;5071001;28;19916;-36
2023/06/19 05:51:12;;;;;;;;;;;21.80;68.30;;;;;;5071697;28;20011;-37
2023/06/19 05:53:38;;;;;;;;;;;21.80;68.00;;;;;;5071511;28;20372;-37
2023/06/19 05:56:05;;;;;;;;;;;21.90;67.80;;;;;;5071434;28;20169;-36
2023/06/19 05:58:31;;;;;;;;;;;21.90;67.80;;;;;;5071320;28;19953;-35
2023/06/19 06:00:57;;;;;;;;;;;22.00;67.70;;;;;;5071389;28;19995;-36
2023/06/19 06:03:24;;;;;;;;;;;22.00;67.30;;;;;;5071328;28;19919;-35
2023/06/19 06:05:50;;;;;;;;;;;22.10;67.00;;;;;;5071266;28;20017;-50
2023/06/19 06:08:15;;;;;;;;;;;22.10;66.90;;;;;;5071345;28;19908;-36
2023/06/19 06:10:41;;;;;;;;;;;22.10;66.90;;;;;;5071433;28;19931;-36
2023/06/19 06:13:06;;;;;;;;;;;22.10;66.90;;;;;;5071130;28;19909;-35
2023/06/19 06:15:32;;;;;;;;;;;22.10;67.00;;;;;;5071460;28;19916;-35
2023/06/19 06:17:57;;;;;;;;;;;22.10;66.80;;;;;;5071208;28;19958;-36
2023/06/19 06:20:23;;;;;;;;;;;22.10;67.00;;;;;;5070988;28;19912;-35
2023/06/19 06:22:48;;;;;;;;;;;22.10;67.00;;;;;;5070128;28;20015;-33
2023/06/19 06:25:14;;;;;;;;;;;22.10;66.80;;;;;;5070196;28;19924;-35
2023/06/19 06:27:39;;;;;;;;;;;22.20;66.70;;;;;;5071359;28;19909;-36
2023/06/19 06:30:05;;;;;;;;;;;22.30;66.60;;;;;;5071447;28;20372;-35
2023/06/19 06:32:31;;;;;;;;;;;22.30;66.40;;;;;;5071419;28;19999;-37
2023/06/19 06:34:57;;;;;;;;;;;22.30;66.50;;;;;;5071451;28;20023;-35
2023/06/19 06:37:22;;;;;;;;;;;22.30;66.60;;;;;;5071206;28;19916;-36
2023/06/19 06:39:49;;;;;;;;;;;22.20;66.70;;;;;;5071291;28;19908;-34
2023/06/19 06:42:14;;;;;;;;;;;22.20;66.70;;;;;;5071396;28;19908;-34
2023/06/19 06:44:40;;;;;;;;;;;22.20;66.80;;;;;;5071210;28;19908;-36
2023/06/19 06:47:05;;;;;;;;;;;22.10;67.00;;;;;;5071224;28;19952;-35
2023/06/19 06:49:31;;;;;;;;;;;22.10;67.10;;;;;;5071264;28;19908;-37
2023/06/19 06:51:56;;;;;;;;;;;22.10;67.10;;;;;;5071530;28;19962;-35
2023/06/19 06:54:22;;;;;;;;;;;22.10;67.20;;;;;;5071093;28;19974;-36
2023/06/19 06:56:48;;;;;;;;;;;22.10;67.80;;;;;;5071286;28;19908;-35
2023/06/19 06:59:15;;;;;;;;;;;22.00;67.80;;;;;;5071090;28;19913;-36
2023/06/19 07:01:43;;;;;;;;;;;22.00;67.80;;;;;;5073420;28;19974;-36
2023/06/19 07:04:09;;;;;;;;;;;22.00;67.80;;;;;;5074593;28;19912;-34
2023/06/19 07:06:34;;;;;;;;;;;21.90;67.80;;;;;;5074449;28;20341;-36
2023/06/19 07:09:00;;;;;;;;;;;21.90;67.80;;;;;;5074556;28;19908;-35
2023/06/19 07:11:25;;;;;;;;;;;21.90;67.60;;;;;;5056813;28;19954;-35
2023/06/19 07:13:51;;;;;;;;;;;21.90;67.60;;;;;;5074724;28;19908;-36
2023/06/19 07:16:16;;;;;;;;;;;21.90;67.50;;;;;;5074524;28;19908;-36
2023/06/19 07:18:42;;;;;;;;;;;21.90;67.50;;;;;;5074537;28;19916;-34
2023/06/19 07:21:16;;;;;;;;;;;21.90;67.40;;;;;;5074446;28;19999;-36
2023/06/19 07:23:42;;;;;;;;;;;22.00;67.30;;;;;;5074352;28;19961;-36
2023/06/19 07:26:09;;;;;;;;;;;22.00;67.40;;;;;;5056152;28;20011;-34
2023/06/19 07:28:36;;;;;;;;;;;22.10;67.10;;;;;;5074347;28;20002;-34
2023/06/19 07:31:02;;;;;;;;;;;22.20;67.00;;;;;;5074332;28;19908;-36
2023/06/19 07:33:29;;;;;;;;;;;22.20;66.80;;;;;;5074368;28;20033;-33
2023/06/19 07:35:54;;;;;;;;;;;22.30;67.20;;;;;;5074223;28;19931;-36
2023/06/19 07:38:20;;;;;;;;;;;22.40;66.30;;;;;;5074102;28;19909;-35
2023/06/19 07:40:45;;;;;;;;;;;22.50;66.00;;;;;;5074079;28;19912;-35
2023/06/19 07:43:11;;;;;;;;;;;22.60;65.70;;;;;;5073985;28;20007;-36
2023/06/19 07:45:36;;;;;;;;;;;22.80;65.40;;;;;;5073983;28;20322;-35
2023/06/19 07:48:02;;;;;;;;;;;22.90;64.70;;;;;;5074377;28;19950;-35
2023/06/19 07:50:27;;;;;;;;;;;23.00;64.40;;;;;;5074170;28;19958;-35
2023/06/19 07:52:53;;;;;;;;;;;23.10;63.90;;;;;;5073838;28;19919;-35
2023/06/19 07:55:18;;;;;;;;;;;23.10;63.60;;;;;;5073859;28;20429;-35
2023/06/19 07:57:44;;;;;;;;;;;23.20;63.20;;;;;;5074162;28;19931;-36
2023/06/19 08:00:13;;;;;;;;;;;23.20;63.30;;;;;;5073636;28;19973;-34
2023/06/19 08:02:38;;;;;;;;;;;23.20;63.20;;;;;;5073601;28;19908;-34
2023/06/19 08:05:04;;;;;;;;;;;23.30;63.10;;;;;;5073945;28;19974;-36
2023/06/19 08:07:30;;;;;;;;;;;23.30;62.70;;;;;;5055677;28;19908;-36
2023/06/19 08:09:55;;;;;;;;;;;23.10;62.50;;;;;;5073415;28;20065;-34
2023/06/19 08:12:20;;;;;;;;;;;23.10;62.50;;;;;;5055040;28;19909;-35
2023/06/19 08:14:46;;;;;;;;;;;23.10;62.60;;;;;;5073325;28;20402;-34
2023/06/19 08:17:11;;;;;;;;;;;23.10;62.50;;;;;;5073298;28;19912;-35
2023/06/19 08:19:38;;;;;;;;;;;23.20;62.40;;;;;;5073369;28;19916;-35
2023/06/19 08:22:05;;;;;;;;;;;23.20;62.20;;;;;;5073154;28;19908;-36
2023/06/19 08:24:30;;;;;;;;;;;23.20;62.10;;;;;;5073093;28;19924;-36
2023/06/19 08:26:56;;;;;;;;;;;23.30;61.90;;;;;;5073112;28;19919;-35
2023/06/19 08:29:22;;;;;;;;;;;23.30;61.70;;;;;;5073382;28;19908;-35
2023/06/19 08:31:48;;;;;;;;;;;23.40;61.50;;;;;;5073370;28;19999;-35
2023/06/19 08:34:13;;;;;;;;;;;23.50;61.20;;;;;;5073070;28;19966;-46
2023/06/19 08:36:39;;;;;;;;;;;23.50;61.00;;;;;;5072871;28;19912;-32
2023/06/19 08:39:04;;;;;;;;;;;23.50;60.80;;;;;;5073095;28;19919;-35
2023/06/19 08:41:30;;;;;;;;;;;23.50;60.60;;;;;;5073066;28;20374;-35
2023/06/19 08:43:55;;;;;;;;;;;23.50;60.70;;;;;;5073175;28;19909;-36
2023/06/19 08:46:21;;;;;;;;;;;23.60;60.60;;;;;;5072872;28;19912;-34
2023/06/19 08:48:46;;;;;;;;;;;23.60;60.60;;;;;;5072896;28;20383;-34
2023/06/19 08:51:13;;;;;;;;;;;23.60;60.40;;;;;;5072729;28;19908;-35
2023/06/19 08:53:47;;;;;;;;;;;23.50;60.50;;;;;;5072974;28;19931;-34
2023/06/19 08:56:12;;;;;;;;;;;23.60;60.70;;;;;;5072777;28;19908;-36
2023/06/19 08:58:38;;;;;;;;;;;23.60;60.50;;;;;;5072646;28;20382;-34
2023/06/19 09:01:03;;;;;;;;;;;23.70;60.60;;;;;;5072535;28;20213;-35
2023/06/19 09:03:29;;;;;;;;;;;23.80;60.50;;;;;;5072689;28;19914;-34
2023/06/19 09:05:54;;;;;;;;;;;23.80;60.40;;;;;;5072410;28;19919;-35
2023/06/19 09:08:20;;;;;;;;;;;23.90;60.50;;;;;;5072646;28;19908;-35
2023/06/19 09:10:59;;;;;;;;;;;23.90;60.40;;;;;;5072269;28;19909;-35
2023/06/19 09:13:25;;;;;;;;;;;23.90;60.40;;;;;;5072368;28;19909;-35
2023/06/19 09:16:04;;;;;;;;;;;23.90;60.30;;;;;;5072277;28;19915;-35
2023/06/19 09:18:30;;;;;;;;;;;23.90;60.40;;;;;;5072331;28;19999;-36
2023/06/19 09:20:56;;;;;;;;;;;23.90;60.40;;;;;;5072522;28;19908;-35
2023/06/19 09:23:21;;;;;;;;;;;23.80;60.50;;;;;;5053286;28;19916;-34
2023/06/19 09:25:48;;;;;;;;;;;23.80;60.60;;;;;;5071955;28;19962;-32
2023/06/19 09:28:23;;;;;;;;;;;23.80;60.60;;;;;;5072155;28;19912;-37
2023/06/19 09:30:56;;;;;;;;;;;23.80;60.50;;;;;;5072549;28;19909;-37
2023/06/19 09:33:22;;;;;;;;;;;23.90;60.40;;;;;;5071982;28;19995;-36
2023/06/19 09:35:49;;;;;;;;;;;24.00;60.20;;;;;;5072024;28;19913;-35
2023/06/19 09:38:16;;;;;;;;;;;24.10;60.20;;;;;;5071968;28;19909;-36
2023/06/19 09:40:43;;;;;;;;;;;24.10;60.00;;;;;;5053926;28;20363;-35
2023/06/19 09:43:08;;;;;;;;;;;24.30;59.90;;;;;;5072065;28;19908;-34
2023/06/19 09:45:34;;;;;;;;;;;24.30;59.50;;;;;;5072054;28;20473;-35
2023/06/19 09:48:00;;;;;;;;;;;24.40;59.20;;;;;;5072080;28;19958;-34
2023/06/19 09:50:27;;;;;;;;;;;24.40;59.10;;;;;;5071876;28;20360;-35
2023/06/19 09:52:52;;;;;;;;;;;24.50;59.20;;;;;;5071843;28;19916;-35
2023/06/19 09:55:19;;;;;;;;;;;24.70;59.10;;;;;;5072130;28;19908;-35
2023/06/19 09:57:44;;;;;;;;;;;24.70;58.60;;;;;;5072080;28;19928;-35
2023/06/19 10:00:12;;;;;;;;;;;24.70;58.60;;;;;;5072051;28;19908;-34
2023/06/19 10:02:41;;;;;;;;;;;24.80;58.60;;;;;;5071569;28;19912;-32
2023/06/19 10:05:12;;;;;;;;;;;24.70;58.60;;;;;;5072099;28;19909;-33
2023/06/19 10:07:38;;;;;;;;;;;24.70;58.60;;;;;;5071825;28;19916;-34
2023/06/19 10:10:12;;;;;;;;;;;24.70;58.50;;;;;;5072061;28;19913;-43
2023/06/19 10:12:38;;;;;;;;;;;24.80;58.40;;;;;;5071774;28;19908;-33
2023/06/19 10:15:13;;;;;;;;;;;24.70;58.10;;;;;;5071630;28;19908;-37
2023/06/19 10:17:43;;;;;;;;;;;24.70;58.30;;;;;;5071988;28;20306;-35
2023/06/19 10:20:19;;;;;;;;;;;24.70;58.30;;;;;;5071787;28;19909;-35
2023/06/19 10:22:56;;;;;;;;;;;24.80;58.10;;;;;;5071713;28;19915;-35
2023/06/19 10:25:23;;;;;;;;;;;24.80;57.80;;;;;;5071334;28;19977;-35
2023/06/19 10:27:52;;;;;;;;;;;24.70;57.60;;;;;;5071722;28;19966;-40
2023/06/19 10:30:20;;;;;;;;;;;24.70;57.80;;;;;;5071688;28;19995;-36
2023/06/19 10:32:47;;;;;;;;;;;24.70;57.90;;;;;;5071647;28;19909;-37
2023/06/19 10:35:12;;;;;;;;;;;24.70;58.00;;;;;;5073267;28;19943;-35
2023/06/19 10:37:38;;;;;;;;;;;24.70;58.00;;;;;;5075558;28;20390;-35
2023/06/19 10:40:08;;;;;;;;;;;24.70;58.00;;;;;;5075376;28;19912;-34
2023/06/19 10:42:34;;;;;;;;;;;24.70;57.80;;;;;;5075223;28;19956;-34
2023/06/19 10:45:02;;;;;;;;;;;24.80;57.80;;;;;;5075024;28;19916;-35
2023/06/19 10:47:28;;;;;;;;;;;24.80;57.70;;;;;;5075224;28;19919;-36
2023/06/19 10:49:54;;;;;;;;;;;24.90;57.70;;;;;;5075201;28;20356;-37
2023/06/19 10:52:20;;;;;;;;;;;24.90;57.60;;;;;;5075054;28;20070;-34
2023/06/19 10:54:45;;;;;;;;;;;24.90;57.50;;;;;;5075366;28;19908;-36
2023/06/19 10:57:13;;;;;;;;;;;25.00;57.40;;;;;;5056993;28;19915;-36
2023/06/19 10:59:39;;;;;;;;;;;25.00;57.40;;;;;;5075058;28;19915;-35
2023/06/19 11:02:05;;;;;;;;;;;25.00;57.40;;;;;;5075165;28;19962;-35
2023/06/19 11:04:31;;;;;;;;;;;25.10;57.10;;;;;;5056958;28;20368;-34
2023/06/19 11:06:56;;;;;;;;;;;25.20;57.20;;;;;;5074651;28;19918;-37
2023/06/19 11:09:22;;;;;;;;;;;25.30;56.80;;;;;;5075086;28;19942;-38
2023/06/19 11:11:48;;;;;;;;;;;25.40;56.60;;;;;;5074743;28;19930;-35
2023/06/19 11:14:14;;;;;;;;;;;25.50;56.40;;;;;;5074982;28;20342;-35
2023/06/19 11:16:41;;;;;;;;;;;25.60;56.30;;;;;;5074919;28;19908;-34
2023/06/19 11:19:08;;;;;;;;;;;25.70;56.20;;;;;;5074821;28;19908;-37
2023/06/19 11:21:38;;;;;;;;;;;25.90;55.80;;;;;;5074445;28;19947;-34
2023/06/19 11:24:05;;;;;;;;;;;26.00;55.20;;;;;;5074273;28;19924;-34
2023/06/19 11:26:49;;;;;;;;;;;26.00;55.00;;;;;;5074586;28;19924;-34
2023/06/19 11:29:15;;;;;;;;;;;26.10;54.80;;;;;;5074431;28;19916;-35
2023/06/19 11:31:41;;;;;;;;;;;26.20;54.50;;;;;;5074556;28;20015;-35
2023/06/19 11:34:06;;;;;;;;;;;26.10;54.50;;;;;;5074734;28;20287;-37
2023/06/19 11:36:32;;;;;;;;;;;26.10;54.60;;;;;;5074397;28;19915;-33
2023/06/19 11:38:57;;;;;;;;;;;26.10;54.30;;;;;;5074326;28;19908;-36
2023/06/19 11:41:27;;;;;;;;;;;26.10;54.30;;;;;;5074254;28;19912;-35
2023/06/19 11:44:06;;;;;;;;;;;26.10;54.40;;;;;;5074351;28;19908;-35
2023/06/19 11:46:32;;;;;;;;;;;26.10;53.60;;;;;;5072980;28;20371;-35
2023/06/19 11:49:10;;;;;;;;;;;26.10;53.20;;;;;;5074330;28;19916;-36
2023/06/19 11:51:36;;;;;;;;;;;26.10;53.50;;;;;;5073933;28;19912;-35
2023/06/19 11:54:01;;;;;;;;;;;26.20;53.30;;;;;;5073776;28;19916;-34
2023/06/19 11:56:27;;;;;;;;;;;26.30;53.10;;;;;;5073798;28;19912;-35
2023/06/19 11:58:52;;;;;;;;;;;26.30;52.50;;;;;;5073760;28;19919;-34
2023/06/19 12:01:18;;;;;;;;;;;26.30;52.40;;;;;;5073825;28;19915;-38
2023/06/19 12:03:43;;;;;;;;;;;26.20;52.00;;;;;;5073667;28;20326;-46
2023/06/19 12:06:09;;;;;;;;;;;26.20;52.50;;;;;;5073581;28;19912;-37
2023/06/19 12:08:37;;;;;;;;;;;26.20;52.30;;;;;;5073915;28;19909;-36
2023/06/19 12:11:05;;;;;;;;;;;26.20;51.90;;;;;;5073667;28;19994;-37
2023/06/19 12:13:30;;;;;;;;;;;26.10;51.90;;;;;;5073594;28;19959;-33
2023/06/19 12:15:55;;;;;;;;;;;26.10;51.70;;;;;;5073559;28;19951;-35
2023/06/19 12:18:21;;;;;;;;;;;26.10;52.00;;;;;;5073331;28;19908;-34
2023/06/19 12:20:46;;;;;;;;;;;26.20;51.40;;;;;;5073472;28;19909;-36
2023/06/19 12:23:12;;;;;;;;;;;26.20;51.40;;;;;;5073229;28;19999;-36
2023/06/19 12:25:37;;;;;;;;;;;26.20;51.10;;;;;;5073263;28;19916;-36
2023/06/19 12:28:08;;;;;;;;;;;26.30;51.10;;;;;;5073584;28;19912;-36
2023/06/19 12:30:34;;;;;;;;;;;26.40;51.00;;;;;;5073068;28;19909;-35
2023/06/19 12:32:59;;;;;;;;;;;26.50;50.70;;;;;;5055445;28;20003;-37
2023/06/19 12:35:25;;;;;;;;;;;26.50;50.00;;;;;;5073093;28;20355;-36
2023/06/19 12:37:51;;;;;;;;;;;26.50;50.20;;;;;;5073072;28;19923;-37
2023/06/19 12:40:17;;;;;;;;;;;26.50;50.20;;;;;;5072858;28;20003;-34
2023/06/19 12:42:43;;;;;;;;;;;26.50;50.40;;;;;;5073022;28;20093;-37
2023/06/19 12:45:09;;;;;;;;;;;26.60;49.90;;;;;;5055120;28;20360;-35
2023/06/19 12:47:35;;;;;;;;;;;26.70;49.60;;;;;;5072829;28;19908;-35
2023/06/19 12:50:00;;;;;;;;;;;26.70;49.60;;;;;;5073013;28;19931;-35
2023/06/19 12:52:26;;;;;;;;;;;26.70;49.90;;;;;;5072660;28;20150;-36
2023/06/19 12:54:51;;;;;;;;;;;26.80;50.00;;;;;;5072692;28;20356;-36
2023/06/19 12:57:17;;;;;;;;;;;27.00;49.90;;;;;;5072519;28;20378;-36
2023/06/19 12:59:42;;;;;;;;;;;27.10;50.00;;;;;;5072939;28;19912;-35
2023/06/19 13:02:08;;;;;;;;;;;27.20;48.90;;;;;;5072753;28;20362;-33
2023/06/19 13:04:33;;;;;;;;;;;27.30;49.20;;;;;;5072506;28;19908;-35
2023/06/19 13:06:59;;;;;;;;;;;27.40;49.00;;;;;;5072562;28;19920;-36
2023/06/19 13:09:24;;;;;;;;;;;27.50;48.50;;;;;;5072365;28;20255;-36
2023/06/19 13:11:50;;;;;;;;;;;27.60;48.70;;;;;;5072359;28;19915;-34
2023/06/19 13:14:15;;;;;;;;;;;27.60;48.40;;;;;;5072645;28;19958;-36
2023/06/19 13:16:41;;;;;;;;;;;27.70;48.20;;;;;;5072365;28;19955;-34
2023/06/19 13:19:06;;;;;;;;;;;27.80;48.20;;;;;;5072155;28;19909;-35
2023/06/19 13:21:32;;;;;;;;;;;27.80;47.40;;;;;;5072355;28;19923;-38
2023/06/19 13:23:57;;;;;;;;;;;27.90;47.20;;;;;;5072241;28;20421;-36
2023/06/19 13:26:24;;;;;;;;;;;27.90;47.00;;;;;;5071621;28;20131;-35
2023/06/19 13:28:50;;;;;;;;;;;28.00;47.40;;;;;;5072385;28;19912;-35
2023/06/19 13:31:15;;;;;;;;;;;28.00;47.00;;;;;;5072006;28;19919;-34
2023/06/19 13:33:41;;;;;;;;;;;28.00;47.10;;;;;;5071966;28;20268;-33
2023/06/19 13:36:06;;;;;;;;;;;28.10;47.30;;;;;;5072315;28;19912;-34
2023/06/19 13:38:32;;;;;;;;;;;28.30;46.60;;;;;;5072112;28;19919;-32
2023/06/19 13:40:57;;;;;;;;;;;28.30;46.70;;;;;;5072025;28;20015;-35
2023/06/19 13:43:23;;;;;;;;;;;28.40;46.70;;;;;;5072110;28;19913;-35
2023/06/19 13:45:49;;;;;;;;;;;28.50;46.80;;;;;;5071920;28;19916;-36
2023/06/19 13:48:14;;;;;;;;;;;28.50;46.20;;;;;;5071898;28;20436;-33
2023/06/19 13:50:40;;;;;;;;;;;28.60;45.40;;;;;;5071855;28;19919;-36
2023/06/19 13:53:05;;;;;;;;;;;28.60;46.00;;;;;;5071942;28;19919;-34
2023/06/19 13:55:31;;;;;;;;;;;28.70;45.60;;;;;;5072345;28;19912;-37
2023/06/19 13:57:56;;;;;;;;;;;28.70;45.80;;;;;;5071925;28;19920;-36
2023/06/19 14:00:22;;;;;;;;;;;28.70;45.80;;;;;;5072229;28;19912;-37
2023/06/19 14:02:47;;;;;;;;;;;28.70;46.00;;;;;;5071456;28;19912;-38
2023/06/19 14:05:14;;;;;;;;;;;28.80;46.10;;;;;;5071705;28;19916;-34
2023/06/19 14:07:40;;;;;;;;;;;28.90;46.10;;;;;;5071745;28;20371;-36
2023/06/19 14:10:06;;;;;;;;;;;29.10;45.80;;;;;;5055362;28;19912;-36